Ana Sayfa
METAR-TAF:

METAR-TAF

Havaalanları :

Clinton, Kuzey Carolina, Amerika Birleşik Devletleri

Enlem: 34-58-32N, Boylam: 078-21-53W, yükseklik: 45 m

Güncel hava durumu gözlemi

Rapor saat 13:15 UTC de 27 dakika önce yapıldı.
Rüzgar kuzeydan 3 kt
Sıcaklık 2°C
Nem 87%
Basınç 1020 hPa
Görüş mesafesi: 16.1 km
Açık gökyüzü

METAR: KCTZ 291315Z AUTO 01003KT 10SM CLR 02/00 A3013 RMK AO2 T00171004

Saat: 08:42 (13:42 UTC)


TAF: eksik

4.000'den fazla havaalanı için hava durumu gözlemleri ve tahminleri (METAR ve TAF raporları).

Kullanılabilir istasyonlar harita üzerinde sarı ve kırmızı noktalarla gösterilir.

İstasyonun adını görmek için fareyi noktanın üzerinde gezdirin.

Sonrasında hava gözlem ve tahminlerini görmek için tıklayın.

Haritayı değiştirmek için: yaklaştırmak için siyah artı işaretli yeşil düğmeye ve uzaklaştırmak için de eksi işaretli düğmeye hızla tıklayın; bitişik haritalar için yeşil okları kullanın.


METAR-TAF: